sensor_id;sensor_type;location;lat;lon;timestamp;P1;durP1;ratioP1;P2;durP2;ratioP2
85642;SDS011;76068;52.404;16.862;2024-03-02T00:00:08;83.72;;;37.67;;
85642;SDS011;76068;52.404;16.862;2024-03-02T00:02:57;91.38;;;43.08;;
85642;SDS011;76068;52.404;16.862;2024-03-02T00:05:22;91.90;;;42.78;;
85642;SDS011;76068;52.404;16.862;2024-03-02T00:07:55;88.60;;;38.88;;
85642;SDS011;76068;52.404;16.862;2024-03-02T00:10:26;92.57;;;41.67;;
85642;SDS011;76068;52.404;16.862;2024-03-02T00:13:02;80.82;;;41.55;;
85642;SDS011;76068;52.404;16.862;2024-03-02T00:15:40;88.55;;;41.47;;
85642;SDS011;76068;52.404;16.862;2024-03-02T00:18:18;90.72;;;38.95;;
85642;SDS011;76068;52.404;16.862;2024-03-02T00:20:45;86.00;;;38.03;;
85642;SDS011;76068;52.404;16.862;2024-03-02T00:23:13;90.65;;;39.35;;
85642;SDS011;76068;52.404;16.862;2024-03-02T00:25:41;87.05;;;37.67;;
85642;SDS011;76068;52.404;16.862;2024-03-02T00:28:24;94.13;;;39.20;;
85642;SDS011;76068;52.404;16.862;2024-03-02T00:30:54;93.82;;;43.80;;
85642;SDS011;76068;52.404;16.862;2024-03-02T00:33:25;92.88;;;41.03;;
85642;SDS011;76068;52.404;16.862;2024-03-02T00:35:52;92.40;;;41.25;;
85642;SDS011;76068;52.404;16.862;2024-03-02T00:38:18;92.45;;;40.83;;
85642;SDS011;76068;52.404;16.862;2024-03-02T00:40:44;95.22;;;41.13;;
85642;SDS011;76068;52.404;16.862;2024-03-02T00:43:12;86.53;;;39.90;;
85642;SDS011;76068;52.404;16.862;2024-03-02T00:46:02;93.70;;;42.38;;
85642;SDS011;76068;52.404;16.862;2024-03-02T00:48:27;100.18;;;42.53;;
85642;SDS011;76068;52.404;16.862;2024-03-02T00:50:56;89.85;;;38.75;;
85642;SDS011;76068;52.404;16.862;2024-03-02T00:53:23;93.45;;;40.72;;
85642;SDS011;76068;52.404;16.862;2024-03-02T00:55:52;94.07;;;40.88;;
85642;SDS011;76068;52.404;16.862;2024-03-02T00:58:18;90.22;;;38.75;;
85642;SDS011;76068;52.404;16.862;2024-03-02T01:00:43;91.63;;;39.70;;
85642;SDS011;76068;52.404;16.862;2024-03-02T01:03:09;91.13;;;38.40;;
85642;SDS011;76068;52.404;16.862;2024-03-02T01:05:36;95.18;;;41.63;;
85642;SDS011;76068;52.404;16.862;2024-03-02T01:08:02;111.95;;;44.70;;
85642;SDS011;76068;52.404;16.862;2024-03-02T01:10:28;106.85;;;43.50;;
85642;SDS011;76068;52.404;16.862;2024-03-02T01:12:54;94.15;;;40.67;;
85642;SDS011;76068;52.404;16.862;2024-03-02T01:15:19;93.85;;;38.25;;
85642;SDS011;76068;52.404;16.862;2024-03-02T01:17:46;102.65;;;44.58;;
85642;SDS011;76068;52.404;16.862;2024-03-02T01:20:12;100.32;;;41.95;;
85642;SDS011;76068;52.404;16.862;2024-03-02T01:22:38;85.53;;;36.88;;
85642;SDS011;76068;52.404;16.862;2024-03-02T01:25:03;93.03;;;39.90;;
85642;SDS011;76068;52.404;16.862;2024-03-02T01:27:30;103.00;;;42.95;;
85642;SDS011;76068;52.404;16.862;2024-03-02T01:29:55;96.43;;;38.95;;
85642;SDS011;76068;52.404;16.862;2024-03-02T01:32:21;100.53;;;43.38;;
85642;SDS011;76068;52.404;16.862;2024-03-02T01:34:47;100.50;;;39.78;;
85642;SDS011;76068;52.404;16.862;2024-03-02T01:37:13;95.95;;;42.35;;
85642;SDS011;76068;52.404;16.862;2024-03-02T01:39:38;97.15;;;41.10;;
85642;SDS011;76068;52.404;16.862;2024-03-02T01:42:04;100.63;;;41.65;;
85642;SDS011;76068;52.404;16.862;2024-03-02T01:44:30;94.90;;;39.80;;
85642;SDS011;76068;52.404;16.862;2024-03-02T01:46:56;97.85;;;40.28;;
85642;SDS011;76068;52.404;16.862;2024-03-02T01:49:21;98.85;;;37.83;;
85642;SDS011;76068;52.404;16.862;2024-03-02T01:51:48;93.80;;;39.88;;
85642;SDS011;76068;52.404;16.862;2024-03-02T01:54:13;96.03;;;38.20;;
85642;SDS011;76068;52.404;16.862;2024-03-02T01:56:39;91.43;;;40.15;;
85642;SDS011;76068;52.404;16.862;2024-03-02T01:59:05;105.25;;;42.33;;
85642;SDS011;76068;52.404;16.862;2024-03-02T02:01:32;98.25;;;39.00;;
85642;SDS011;76068;52.404;16.862;2024-03-02T02:03:57;98.30;;;39.90;;
85642;SDS011;76068;52.404;16.862;2024-03-02T02:06:23;99.57;;;39.40;;
85642;SDS011;76068;52.404;16.862;2024-03-02T02:08:49;92.28;;;38.45;;
85642;SDS011;76068;52.404;16.862;2024-03-02T02:11:15;91.63;;;36.83;;
85642;SDS011;76068;52.404;16.862;2024-03-02T02:13:41;89.85;;;36.85;;
85642;SDS011;76068;52.404;16.862;2024-03-02T02:16:07;83.63;;;37.08;;
85642;SDS011;76068;52.404;16.862;2024-03-02T02:18:33;88.00;;;36.28;;
85642;SDS011;76068;52.404;16.862;2024-03-02T02:20:59;86.15;;;35.60;;
85642;SDS011;76068;52.404;16.862;2024-03-02T02:23:25;86.68;;;38.38;;
85642;SDS011;76068;52.404;16.862;2024-03-02T02:25:51;80.63;;;34.88;;
85642;SDS011;76068;52.404;16.862;2024-03-02T02:28:16;92.72;;;38.08;;
85642;SDS011;76068;52.404;16.862;2024-03-02T02:30:42;91.10;;;39.53;;
85642;SDS011;76068;52.404;16.862;2024-03-02T02:33:08;78.10;;;33.20;;
85642;SDS011;76068;52.404;16.862;2024-03-02T02:35:34;73.38;;;32.85;;
85642;SDS011;76068;52.404;16.862;2024-03-02T02:38:00;81.95;;;34.33;;
85642;SDS011;76068;52.404;16.862;2024-03-02T02:40:27;76.53;;;32.60;;
85642;SDS011;76068;52.404;16.862;2024-03-02T02:42:56;82.47;;;31.40;;
85642;SDS011;76068;52.404;16.862;2024-03-02T02:45:22;80.00;;;35.33;;
85642;SDS011;76068;52.404;16.862;2024-03-02T02:47:48;73.97;;;32.38;;
85642;SDS011;76068;52.404;16.862;2024-03-02T02:50:14;75.38;;;32.65;;
85642;SDS011;76068;52.404;16.862;2024-03-02T02:52:40;73.53;;;32.40;;
85642;SDS011;76068;52.404;16.862;2024-03-02T02:57:34;78.38;;;33.63;;
85642;SDS011;76068;52.404;16.862;2024-03-02T03:00:05;72.25;;;33.83;;
85642;SDS011;76068;52.404;16.862;2024-03-02T03:02:41;70.32;;;28.92;;
85642;SDS011;76068;52.404;16.862;2024-03-02T03:05:09;74.82;;;33.58;;
85642;SDS011;76068;52.404;16.862;2024-03-02T03:07:35;76.13;;;33.42;;
85642;SDS011;76068;52.404;16.862;2024-03-02T03:10:02;64.75;;;28.38;;
85642;SDS011;76068;52.404;16.862;2024-03-02T03:12:29;66.55;;;28.65;;
85642;SDS011;76068;52.404;16.862;2024-03-02T03:14:56;75.60;;;34.03;;
85642;SDS011;76068;52.404;16.862;2024-03-02T03:17:22;66.72;;;29.77;;
85642;SDS011;76068;52.404;16.862;2024-03-02T03:19:49;73.70;;;30.75;;
85642;SDS011;76068;52.404;16.862;2024-03-02T03:22:15;62.33;;;28.23;;
85642;SDS011;76068;52.404;16.862;2024-03-02T03:24:41;62.50;;;28.35;;
85642;SDS011;76068;52.404;16.862;2024-03-02T03:27:06;70.38;;;30.30;;
85642;SDS011;76068;52.404;16.862;2024-03-02T03:29:32;68.78;;;29.83;;
85642;SDS011;76068;52.404;16.862;2024-03-02T03:31:58;71.97;;;29.98;;
85642;SDS011;76068;52.404;16.862;2024-03-02T03:34:24;73.38;;;30.00;;
85642;SDS011;76068;52.404;16.862;2024-03-02T03:36:49;73.95;;;30.80;;
85642;SDS011;76068;52.404;16.862;2024-03-02T03:39:15;66.10;;;27.27;;
85642;SDS011;76068;52.404;16.862;2024-03-02T03:41:41;69.90;;;27.65;;
85642;SDS011;76068;52.404;16.862;2024-03-02T03:44:07;64.60;;;28.38;;
85642;SDS011;76068;52.404;16.862;2024-03-02T03:46:32;66.13;;;29.48;;
85642;SDS011;76068;52.404;16.862;2024-03-02T03:48:58;65.28;;;30.52;;
85642;SDS011;76068;52.404;16.862;2024-03-02T03:51:24;58.88;;;27.45;;
85642;SDS011;76068;52.404;16.862;2024-03-02T03:53:50;63.10;;;27.42;;
85642;SDS011;76068;52.404;16.862;2024-03-02T03:56:16;66.97;;;29.20;;
85642;SDS011;76068;52.404;16.862;2024-03-02T03:58:41;61.17;;;26.13;;
85642;SDS011;76068;52.404;16.862;2024-03-02T04:01:07;68.63;;;30.30;;
85642;SDS011;76068;52.404;16.862;2024-03-02T04:03:33;62.83;;;29.27;;
85642;SDS011;76068;52.404;16.862;2024-03-02T04:05:59;66.57;;;29.65;;
85642;SDS011;76068;52.404;16.862;2024-03-02T04:08:25;58.72;;;27.00;;
85642;SDS011;76068;52.404;16.862;2024-03-02T04:10:51;66.32;;;29.08;;
85642;SDS011;76068;52.404;16.862;2024-03-02T04:13:17;68.80;;;28.20;;
85642;SDS011;76068;52.404;16.862;2024-03-02T04:15:42;66.35;;;27.80;;
85642;SDS011;76068;52.404;16.862;2024-03-02T04:18:08;72.45;;;31.00;;
85642;SDS011;76068;52.404;16.862;2024-03-02T04:20:34;68.38;;;28.52;;
85642;SDS011;76068;52.404;16.862;2024-03-02T04:23:00;65.57;;;26.98;;
85642;SDS011;76068;52.404;16.862;2024-03-02T04:25:25;66.35;;;28.88;;
85642;SDS011;76068;52.404;16.862;2024-03-02T04:27:51;67.18;;;30.08;;
85642;SDS011;76068;52.404;16.862;2024-03-02T04:30:16;62.20;;;27.77;;
85642;SDS011;76068;52.404;16.862;2024-03-02T04:32:42;61.10;;;28.02;;
85642;SDS011;76068;52.404;16.862;2024-03-02T04:35:11;64.47;;;30.38;;
85642;SDS011;76068;52.404;16.862;2024-03-02T04:37:38;60.38;;;28.30;;
85642;SDS011;76068;52.404;16.862;2024-03-02T04:40:04;57.13;;;24.75;;
85642;SDS011;76068;52.404;16.862;2024-03-02T04:42:34;70.25;;;29.05;;
85642;SDS011;76068;52.404;16.862;2024-03-02T04:45:01;66.43;;;30.20;;
85642;SDS011;76068;52.404;16.862;2024-03-02T04:47:27;60.15;;;27.52;;
85642;SDS011;76068;52.404;16.862;2024-03-02T04:49:53;63.15;;;27.77;;
85642;SDS011;76068;52.404;16.862;2024-03-02T04:52:19;67.40;;;30.73;;
85642;SDS011;76068;52.404;16.862;2024-03-02T04:54:44;63.28;;;28.48;;
85642;SDS011;76068;52.404;16.862;2024-03-02T04:57:29;75.15;;;28.92;;
85642;SDS011;76068;52.404;16.862;2024-03-02T04:59:54;63.40;;;28.90;;
85642;SDS011;76068;52.404;16.862;2024-03-02T05:02:20;58.92;;;27.25;;
85642;SDS011;76068;52.404;16.862;2024-03-02T05:04:46;58.95;;;27.50;;
85642;SDS011;76068;52.404;16.862;2024-03-02T05:07:13;67.72;;;30.73;;
85642;SDS011;76068;52.404;16.862;2024-03-02T05:09:39;54.17;;;23.90;;
85642;SDS011;76068;52.404;16.862;2024-03-02T05:12:05;57.55;;;27.92;;
85642;SDS011;76068;52.404;16.862;2024-03-02T05:14:48;61.13;;;28.02;;
85642;SDS011;76068;52.404;16.862;2024-03-02T05:17:14;63.63;;;27.48;;
85642;SDS011;76068;52.404;16.862;2024-03-02T05:19:39;62.42;;;26.85;;
85642;SDS011;76068;52.404;16.862;2024-03-02T05:22:05;57.95;;;26.50;;
85642;SDS011;76068;52.404;16.862;2024-03-02T05:24:31;65.13;;;29.17;;
85642;SDS011;76068;52.404;16.862;2024-03-02T05:26:57;66.68;;;27.95;;
85642;SDS011;76068;52.404;16.862;2024-03-02T05:29:22;67.45;;;26.90;;
85642;SDS011;76068;52.404;16.862;2024-03-02T05:31:48;56.10;;;25.73;;
85642;SDS011;76068;52.404;16.862;2024-03-02T05:34:14;62.17;;;29.25;;
85642;SDS011;76068;52.404;16.862;2024-03-02T05:36:40;61.70;;;27.48;;
85642;SDS011;76068;52.404;16.862;2024-03-02T05:39:05;60.72;;;26.67;;
85642;SDS011;76068;52.404;16.862;2024-03-02T05:41:34;58.70;;;25.80;;
85642;SDS011;76068;52.404;16.862;2024-03-02T05:44:01;65.10;;;29.85;;
85642;SDS011;76068;52.404;16.862;2024-03-02T05:46:27;69.00;;;26.52;;
85642;SDS011;76068;52.404;16.862;2024-03-02T05:48:53;62.88;;;25.67;;
85642;SDS011;76068;52.404;16.862;2024-03-02T05:51:19;59.17;;;26.38;;
85642;SDS011;76068;52.404;16.862;2024-03-02T05:53:45;66.35;;;26.35;;
85642;SDS011;76068;52.404;16.862;2024-03-02T05:56:10;65.88;;;28.17;;
85642;SDS011;76068;52.404;16.862;2024-03-02T05:58:37;64.20;;;28.65;;
85642;SDS011;76068;52.404;16.862;2024-03-02T06:01:22;68.53;;;29.63;;
85642;SDS011;76068;52.404;16.862;2024-03-02T06:03:54;61.85;;;29.30;;
85642;SDS011;76068;52.404;16.862;2024-03-02T06:06:24;70.50;;;31.60;;
85642;SDS011;76068;52.404;16.862;2024-03-02T06:08:50;66.65;;;29.10;;
85642;SDS011;76068;52.404;16.862;2024-03-02T06:11:17;61.90;;;29.10;;
85642;SDS011;76068;52.404;16.862;2024-03-02T06:13:45;67.53;;;27.75;;
85642;SDS011;76068;52.404;16.862;2024-03-02T06:16:11;66.70;;;27.85;;
85642;SDS011;76068;52.404;16.862;2024-03-02T06:18:36;70.57;;;29.08;;
85642;SDS011;76068;52.404;16.862;2024-03-02T06:21:02;58.78;;;29.05;;
85642;SDS011;76068;52.404;16.862;2024-03-02T06:23:28;69.50;;;29.30;;
85642;SDS011;76068;52.404;16.862;2024-03-02T06:25:55;64.40;;;28.52;;
85642;SDS011;76068;52.404;16.862;2024-03-02T06:28:20;63.08;;;28.38;;
85642;SDS011;76068;52.404;16.862;2024-03-02T06:30:46;74.47;;;31.77;;
85642;SDS011;76068;52.404;16.862;2024-03-02T06:33:12;57.55;;;27.88;;
85642;SDS011;76068;52.404;16.862;2024-03-02T06:35:39;69.70;;;29.75;;
85642;SDS011;76068;52.404;16.862;2024-03-02T06:38:04;59.88;;;25.88;;
85642;SDS011;76068;52.404;16.862;2024-03-02T06:40:33;60.95;;;28.10;;
85642;SDS011;76068;52.404;16.862;2024-03-02T06:42:59;68.53;;;29.60;;
85642;SDS011;76068;52.404;16.862;2024-03-02T06:45:26;68.90;;;27.30;;
85642;SDS011;76068;52.404;16.862;2024-03-02T06:47:52;66.25;;;27.90;;
85642;SDS011;76068;52.404;16.862;2024-03-02T06:50:18;61.13;;;26.70;;
85642;SDS011;76068;52.404;16.862;2024-03-02T06:52:43;63.28;;;28.20;;
85642;SDS011;76068;52.404;16.862;2024-03-02T06:55:09;61.78;;;28.13;;
85642;SDS011;76068;52.404;16.862;2024-03-02T06:57:35;57.67;;;28.25;;
85642;SDS011;76068;52.404;16.862;2024-03-02T07:00:01;67.18;;;27.13;;
85642;SDS011;76068;52.404;16.862;2024-03-02T07:02:30;58.88;;;27.77;;
85642;SDS011;76068;52.404;16.862;2024-03-02T07:04:56;58.75;;;26.05;;
85642;SDS011;76068;52.404;16.862;2024-03-02T07:07:22;57.17;;;25.73;;
85642;SDS011;76068;52.404;16.862;2024-03-02T07:09:48;59.47;;;27.50;;
85642;SDS011;76068;52.404;16.862;2024-03-02T07:12:13;55.35;;;27.27;;
85642;SDS011;76068;52.404;16.862;2024-03-02T07:14:40;57.45;;;24.83;;
85642;SDS011;76068;52.404;16.862;2024-03-02T07:17:24;61.97;;;26.85;;
85642;SDS011;76068;52.404;16.862;2024-03-02T07:19:51;59.78;;;27.30;;
85642;SDS011;76068;52.404;16.862;2024-03-02T07:22:17;57.20;;;25.85;;
85642;SDS011;76068;52.404;16.862;2024-03-02T07:24:43;56.72;;;24.83;;
85642;SDS011;76068;52.404;16.862;2024-03-02T07:27:11;57.80;;;25.90;;
85642;SDS011;76068;52.404;16.862;2024-03-02T07:29:38;52.92;;;25.15;;
85642;SDS011;76068;52.404;16.862;2024-03-02T07:32:05;53.80;;;25.73;;
85642;SDS011;76068;52.404;16.862;2024-03-02T07:34:32;54.63;;;26.10;;
85642;SDS011;76068;52.404;16.862;2024-03-02T07:36:58;52.03;;;25.58;;
85642;SDS011;76068;52.404;16.862;2024-03-02T07:39:24;61.63;;;27.80;;
85642;SDS011;76068;52.404;16.862;2024-03-02T07:41:50;58.03;;;28.25;;
85642;SDS011;76068;52.404;16.862;2024-03-02T07:44:16;57.63;;;24.90;;
85642;SDS011;76068;52.404;16.862;2024-03-02T07:46:47;50.88;;;24.73;;
85642;SDS011;76068;52.404;16.862;2024-03-02T07:49:17;51.88;;;25.75;;
85642;SDS011;76068;52.404;16.862;2024-03-02T07:51:45;54.40;;;24.83;;
85642;SDS011;76068;52.404;16.862;2024-03-02T07:54:11;56.60;;;26.55;;
85642;SDS011;76068;52.404;16.862;2024-03-02T07:56:37;55.35;;;26.23;;
85642;SDS011;76068;52.404;16.862;2024-03-02T07:59:03;49.15;;;24.65;;
85642;SDS011;76068;52.404;16.862;2024-03-02T08:01:30;55.67;;;26.90;;
85642;SDS011;76068;52.404;16.862;2024-03-02T08:03:57;58.97;;;25.45;;
85642;SDS011;76068;52.404;16.862;2024-03-02T08:06:26;51.88;;;23.25;;
85642;SDS011;76068;52.404;16.862;2024-03-02T08:08:59;53.03;;;26.27;;
85642;SDS011;76068;52.404;16.862;2024-03-02T08:11:26;49.00;;;22.60;;
85642;SDS011;76068;52.404;16.862;2024-03-02T08:13:53;47.05;;;22.27;;
85642;SDS011;76068;52.404;16.862;2024-03-02T08:18:47;45.03;;;21.38;;
85642;SDS011;76068;52.404;16.862;2024-03-02T08:21:13;44.88;;;21.10;;
85642;SDS011;76068;52.404;16.862;2024-03-02T08:23:40;47.33;;;22.58;;
85642;SDS011;76068;52.404;16.862;2024-03-02T08:28:33;47.70;;;22.00;;
85642;SDS011;76068;52.404;16.862;2024-03-02T08:30:59;54.35;;;23.75;;
85642;SDS011;76068;52.404;16.862;2024-03-02T08:33:25;48.25;;;21.33;;
85642;SDS011;76068;52.404;16.862;2024-03-02T08:35:50;47.78;;;22.15;;
85642;SDS011;76068;52.404;16.862;2024-03-02T08:38:17;49.33;;;21.70;;
85642;SDS011;76068;52.404;16.862;2024-03-02T08:40:43;39.03;;;20.48;;
85642;SDS011;76068;52.404;16.862;2024-03-02T08:43:09;47.05;;;22.85;;
85642;SDS011;76068;52.404;16.862;2024-03-02T08:45:35;48.60;;;21.23;;
85642;SDS011;76068;52.404;16.862;2024-03-02T08:48:01;41.97;;;20.48;;
85642;SDS011;76068;52.404;16.862;2024-03-02T08:50:28;40.63;;;20.42;;
85642;SDS011;76068;52.404;16.862;2024-03-02T08:52:54;42.83;;;21.25;;
85642;SDS011;76068;52.404;16.862;2024-03-02T08:55:19;45.03;;;20.60;;
85642;SDS011;76068;52.404;16.862;2024-03-02T08:57:46;42.40;;;21.45;;
85642;SDS011;76068;52.404;16.862;2024-03-02T09:00:11;46.70;;;21.38;;
85642;SDS011;76068;52.404;16.862;2024-03-02T09:02:38;45.10;;;21.55;;
85642;SDS011;76068;52.404;16.862;2024-03-02T09:05:03;47.47;;;22.20;;
85642;SDS011;76068;52.404;16.862;2024-03-02T09:07:30;40.42;;;19.13;;
85642;SDS011;76068;52.404;16.862;2024-03-02T09:09:56;38.22;;;19.52;;
85642;SDS011;76068;52.404;16.862;2024-03-02T09:12:22;43.33;;;21.15;;
85642;SDS011;76068;52.404;16.862;2024-03-02T09:14:47;42.22;;;19.60;;
85642;SDS011;76068;52.404;16.862;2024-03-02T09:17:13;44.97;;;21.58;;
85642;SDS011;76068;52.404;16.862;2024-03-02T09:19:39;41.45;;;19.15;;
85642;SDS011;76068;52.404;16.862;2024-03-02T09:22:05;42.33;;;20.70;;
85642;SDS011;76068;52.404;16.862;2024-03-02T09:24:31;37.28;;;19.50;;
85642;SDS011;76068;52.404;16.862;2024-03-02T09:26:59;42.45;;;20.55;;
85642;SDS011;76068;52.404;16.862;2024-03-02T09:29:25;36.50;;;19.52;;
85642;SDS011;76068;52.404;16.862;2024-03-02T09:31:50;37.80;;;19.88;;
85642;SDS011;76068;52.404;16.862;2024-03-02T09:34:16;42.22;;;20.50;;
85642;SDS011;76068;52.404;16.862;2024-03-02T09:36:42;37.55;;;19.50;;
85642;SDS011;76068;52.404;16.862;2024-03-02T09:39:08;46.60;;;21.98;;
85642;SDS011;76068;52.404;16.862;2024-03-02T09:41:38;40.42;;;21.25;;
85642;SDS011;76068;52.404;16.862;2024-03-02T09:44:04;40.78;;;20.60;;
85642;SDS011;76068;52.404;16.862;2024-03-02T09:46:31;42.40;;;20.58;;
85642;SDS011;76068;52.404;16.862;2024-03-02T09:48:57;36.22;;;18.90;;
85642;SDS011;76068;52.404;16.862;2024-03-02T09:51:24;40.95;;;20.98;;
85642;SDS011;76068;52.404;16.862;2024-03-02T09:53:50;39.00;;;19.20;;
85642;SDS011;76068;52.404;16.862;2024-03-02T09:56:16;36.00;;;19.30;;
85642;SDS011;76068;52.404;16.862;2024-03-02T09:58:43;35.30;;;18.20;;
85642;SDS011;76068;52.404;16.862;2024-03-02T10:01:09;33.88;;;16.70;;
85642;SDS011;76068;52.404;16.862;2024-03-02T10:03:38;34.70;;;19.35;;
85642;SDS011;76068;52.404;16.862;2024-03-02T10:08:53;36.53;;;17.90;;
85642;SDS011;76068;52.404;16.862;2024-03-02T10:14:12;40.30;;;20.05;;
85642;SDS011;76068;52.404;16.862;2024-03-02T10:16:39;39.33;;;19.55;;
85642;SDS011;76068;52.404;16.862;2024-03-02T10:21:55;37.47;;;19.88;;
85642;SDS011;76068;52.404;16.862;2024-03-02T10:24:23;41.72;;;20.52;;
85642;SDS011;76068;52.404;16.862;2024-03-02T10:26:51;35.65;;;19.55;;
85642;SDS011;76068;52.404;16.862;2024-03-02T10:29:17;40.13;;;18.85;;
85642;SDS011;76068;52.404;16.862;2024-03-02T10:31:44;38.10;;;18.77;;
85642;SDS011;76068;52.404;16.862;2024-03-02T10:34:11;45.97;;;21.75;;
85642;SDS011;76068;52.404;16.862;2024-03-02T10:36:40;39.88;;;19.63;;
85642;SDS011;76068;52.404;16.862;2024-03-02T10:39:07;37.38;;;19.45;;
85642;SDS011;76068;52.404;16.862;2024-03-02T10:41:34;38.83;;;19.60;;
85642;SDS011;76068;52.404;16.862;2024-03-02T10:44:05;39.05;;;19.83;;
85642;SDS011;76068;52.404;16.862;2024-03-02T10:46:33;41.30;;;20.48;;
85642;SDS011;76068;52.404;16.862;2024-03-02T10:49:00;37.67;;;18.63;;
85642;SDS011;76068;52.404;16.862;2024-03-02T10:51:27;37.03;;;19.20;;
85642;SDS011;76068;52.404;16.862;2024-03-02T10:53:57;40.95;;;20.98;;
85642;SDS011;76068;52.404;16.862;2024-03-02T10:56:27;35.58;;;19.75;;
85642;SDS011;76068;52.404;16.862;2024-03-02T10:59:37;44.90;;;23.83;;
85642;SDS011;76068;52.404;16.862;2024-03-02T11:01:57;41.28;;;19.63;;
85642;SDS011;76068;52.404;16.862;2024-03-02T11:04:26;35.38;;;18.63;;
85642;SDS011;76068;52.404;16.862;2024-03-02T11:07:09;39.03;;;20.40;;
85642;SDS011;76068;52.404;16.862;2024-03-02T11:09:40;34.53;;;19.02;;
85642;SDS011;76068;52.404;16.862;2024-03-02T11:12:12;35.50;;;20.25;;
85642;SDS011;76068;52.404;16.862;2024-03-02T11:14:41;48.28;;;20.38;;
85642;SDS011;76068;52.404;16.862;2024-03-02T11:17:11;33.60;;;17.67;;
85642;SDS011;76068;52.404;16.862;2024-03-02T11:19:41;31.92;;;18.00;;
85642;SDS011;76068;52.404;16.862;2024-03-02T11:22:08;39.10;;;18.67;;
85642;SDS011;76068;52.404;16.862;2024-03-02T11:24:34;35.05;;;18.83;;
85642;SDS011;76068;52.404;16.862;2024-03-02T11:27:01;35.42;;;19.58;;
85642;SDS011;76068;52.404;16.862;2024-03-02T11:32:12;38.20;;;20.30;;
85642;SDS011;76068;52.404;16.862;2024-03-02T11:34:40;40.78;;;21.63;;
85642;SDS011;76068;52.404;16.862;2024-03-02T11:37:15;40.58;;;20.08;;
85642;SDS011;76068;52.404;16.862;2024-03-02T11:39:43;42.35;;;19.33;;
85642;SDS011;76068;52.404;16.862;2024-03-02T11:42:10;37.83;;;21.27;;
85642;SDS011;76068;52.404;16.862;2024-03-02T11:44:39;41.30;;;20.45;;
85642;SDS011;76068;52.404;16.862;2024-03-02T11:47:08;40.33;;;21.75;;
85642;SDS011;76068;52.404;16.862;2024-03-02T11:49:49;37.17;;;22.38;;
85642;SDS011;76068;52.404;16.862;2024-03-02T11:52:17;42.28;;;21.75;;
85642;SDS011;76068;52.404;16.862;2024-03-02T11:54:46;39.63;;;20.00;;
85642;SDS011;76068;52.404;16.862;2024-03-02T11:57:14;44.15;;;21.85;;
85642;SDS011;76068;52.404;16.862;2024-03-02T11:59:41;38.08;;;21.73;;
85642;SDS011;76068;52.404;16.862;2024-03-02T12:02:12;42.30;;;20.88;;
85642;SDS011;76068;52.404;16.862;2024-03-02T12:04:40;36.42;;;19.65;;
85642;SDS011;76068;52.404;16.862;2024-03-02T12:07:06;39.28;;;21.27;;
85642;SDS011;76068;52.404;16.862;2024-03-02T12:09:33;45.72;;;23.50;;
85642;SDS011;76068;52.404;16.862;2024-03-02T12:12:08;41.58;;;22.70;;
85642;SDS011;76068;52.404;16.862;2024-03-02T12:14:36;41.92;;;21.23;;
85642;SDS011;76068;52.404;16.862;2024-03-02T12:17:03;43.30;;;21.67;;
85642;SDS011;76068;52.404;16.862;2024-03-02T12:19:30;38.58;;;22.35;;
85642;SDS011;76068;52.404;16.862;2024-03-02T12:21:57;44.20;;;21.90;;
85642;SDS011;76068;52.404;16.862;2024-03-02T12:24:23;38.17;;;20.52;;
85642;SDS011;76068;52.404;16.862;2024-03-02T12:26:50;42.13;;;22.80;;
85642;SDS011;76068;52.404;16.862;2024-03-02T12:29:16;36.85;;;20.77;;
85642;SDS011;76068;52.404;16.862;2024-03-02T12:31:43;39.92;;;20.63;;
85642;SDS011;76068;52.404;16.862;2024-03-02T12:34:12;38.90;;;19.35;;
85642;SDS011;76068;52.404;16.862;2024-03-02T12:36:39;42.78;;;22.15;;
85642;SDS011;76068;52.404;16.862;2024-03-02T12:39:10;44.72;;;21.00;;
85642;SDS011;76068;52.404;16.862;2024-03-02T12:41:36;43.20;;;21.20;;
85642;SDS011;76068;52.404;16.862;2024-03-02T12:44:05;37.30;;;19.63;;
85642;SDS011;76068;52.404;16.862;2024-03-02T12:46:32;39.15;;;20.73;;
85642;SDS011;76068;52.404;16.862;2024-03-02T12:48:58;41.67;;;20.98;;
85642;SDS011;76068;52.404;16.862;2024-03-02T12:51:26;44.42;;;20.83;;
85642;SDS011;76068;52.404;16.862;2024-03-02T12:53:57;41.03;;;21.08;;
85642;SDS011;76068;52.404;16.862;2024-03-02T12:56:23;38.53;;;20.92;;
85642;SDS011;76068;52.404;16.862;2024-03-02T12:58:54;37.47;;;19.55;;
85642;SDS011;76068;52.404;16.862;2024-03-02T13:01:20;42.88;;;23.40;;
85642;SDS011;76068;52.404;16.862;2024-03-02T13:03:49;37.15;;;18.75;;
85642;SDS011;76068;52.404;16.862;2024-03-02T13:06:17;36.08;;;19.27;;
85642;SDS011;76068;52.404;16.862;2024-03-02T13:08:43;38.97;;;22.15;;
85642;SDS011;76068;52.404;16.862;2024-03-02T13:11:11;40.22;;;22.42;;
85642;SDS011;76068;52.404;16.862;2024-03-02T13:13:36;39.83;;;20.48;;
85642;SDS011;76068;52.404;16.862;2024-03-02T13:16:04;40.28;;;21.67;;
85642;SDS011;76068;52.404;16.862;2024-03-02T13:18:33;44.08;;;23.08;;
85642;SDS011;76068;52.404;16.862;2024-03-02T13:20:59;43.40;;;21.35;;
85642;SDS011;76068;52.404;16.862;2024-03-02T13:23:25;37.92;;;19.00;;
85642;SDS011;76068;52.404;16.862;2024-03-02T13:25:50;38.72;;;21.60;;
85642;SDS011;76068;52.404;16.862;2024-03-02T13:28:16;42.38;;;22.20;;
85642;SDS011;76068;52.404;16.862;2024-03-02T13:30:43;36.55;;;20.35;;
85642;SDS011;76068;52.404;16.862;2024-03-02T13:33:08;39.67;;;20.25;;
85642;SDS011;76068;52.404;16.862;2024-03-02T13:35:34;37.38;;;21.08;;
85642;SDS011;76068;52.404;16.862;2024-03-02T13:38:00;40.28;;;21.58;;
85642;SDS011;76068;52.404;16.862;2024-03-02T13:40:26;41.80;;;19.58;;
85642;SDS011;76068;52.404;16.862;2024-03-02T13:42:53;40.03;;;20.65;;
85642;SDS011;76068;52.404;16.862;2024-03-02T13:45:19;36.20;;;18.85;;
85642;SDS011;76068;52.404;16.862;2024-03-02T13:47:45;36.50;;;19.98;;
85642;SDS011;76068;52.404;16.862;2024-03-02T13:50:11;35.90;;;19.13;;
85642;SDS011;76068;52.404;16.862;2024-03-02T13:52:37;36.15;;;18.70;;
85642;SDS011;76068;52.404;16.862;2024-03-02T13:55:03;37.00;;;20.27;;
85642;SDS011;76068;52.404;16.862;2024-03-02T13:57:29;39.53;;;19.92;;
85642;SDS011;76068;52.404;16.862;2024-03-02T13:59:56;35.22;;;19.67;;
85642;SDS011;76068;52.404;16.862;2024-03-02T14:02:22;40.72;;;20.73;;
85642;SDS011;76068;52.404;16.862;2024-03-02T14:04:48;32.63;;;19.10;;
85642;SDS011;76068;52.404;16.862;2024-03-02T14:07:14;35.67;;;19.30;;
85642;SDS011;76068;52.404;16.862;2024-03-02T14:09:40;44.50;;;21.83;;
85642;SDS011;76068;52.404;16.862;2024-03-02T14:12:06;34.28;;;18.75;;
85642;SDS011;76068;52.404;16.862;2024-03-02T14:14:32;35.70;;;17.00;;
85642;SDS011;76068;52.404;16.862;2024-03-02T14:16:59;33.17;;;17.20;;
85642;SDS011;76068;52.404;16.862;2024-03-02T14:19:32;37.70;;;19.00;;
85642;SDS011;76068;52.404;16.862;2024-03-02T14:21:58;41.88;;;19.50;;
85642;SDS011;76068;52.404;16.862;2024-03-02T14:24:24;36.17;;;18.80;;
85642;SDS011;76068;52.404;16.862;2024-03-02T14:26:51;34.25;;;19.10;;